sensor_id;sensor_type;location;lat;lon;timestamp;temperature;humidity
34574;DHT22;20809;49.594;8.734;2022-08-03T00:02:21;18.50;99.90
34574;DHT22;20809;49.594;8.734;2022-08-03T00:05:22;18.40;99.90
34574;DHT22;20809;49.594;8.734;2022-08-03T00:08:22;18.30;99.90
34574;DHT22;20809;49.594;8.734;2022-08-03T00:11:23;18.20;99.90
34574;DHT22;20809;49.594;8.734;2022-08-03T00:14:24;18.20;99.90
34574;DHT22;20809;49.594;8.734;2022-08-03T00:17:24;18.10;99.90
34574;DHT22;20809;49.594;8.734;2022-08-03T00:20:25;18.10;99.90
34574;DHT22;20809;49.594;8.734;2022-08-03T00:23:26;18.10;99.90
34574;DHT22;20809;49.594;8.734;2022-08-03T00:26:26;18.00;99.90
34574;DHT22;20809;49.594;8.734;2022-08-03T00:29:27;18.00;99.90
34574;DHT22;20809;49.594;8.734;2022-08-03T00:32:28;17.90;99.90
34574;DHT22;20809;49.594;8.734;2022-08-03T00:35:29;17.90;99.90
34574;DHT22;20809;49.594;8.734;2022-08-03T00:38:30;17.80;99.90
34574;DHT22;20809;49.594;8.734;2022-08-03T00:41:31;17.80;99.90
34574;DHT22;20809;49.594;8.734;2022-08-03T00:44:41;17.70;99.90
34574;DHT22;20809;49.594;8.734;2022-08-03T00:47:42;17.70;99.90
34574;DHT22;20809;49.594;8.734;2022-08-03T00:50:43;17.60;99.90
34574;DHT22;20809;49.594;8.734;2022-08-03T00:53:44;17.60;99.90
34574;DHT22;20809;49.594;8.734;2022-08-03T01:29:03;17.40;99.90
34574;DHT22;20809;49.594;8.734;2022-08-03T01:32:12;17.40;99.90
34574;DHT22;20809;49.594;8.734;2022-08-03T01:35:21;17.30;99.90
34574;DHT22;20809;49.594;8.734;2022-08-03T01:38:28;17.20;99.90
34574;DHT22;20809;49.594;8.734;2022-08-03T01:41:33;17.10;99.90
34574;DHT22;20809;49.594;8.734;2022-08-03T01:44:40;17.10;99.90
34574;DHT22;20809;49.594;8.734;2022-08-03T01:47:43;17.10;99.90
34574;DHT22;20809;49.594;8.734;2022-08-03T01:50:46;17.00;99.90
34574;DHT22;20809;49.594;8.734;2022-08-03T01:53:49;17.00;99.90
34574;DHT22;20809;49.594;8.734;2022-08-03T01:56:52;17.00;99.90
34574;DHT22;20809;49.594;8.734;2022-08-03T01:59:55;16.90;99.90
34574;DHT22;20809;49.594;8.734;2022-08-03T02:02:57;16.90;99.90
34574;DHT22;20809;49.594;8.734;2022-08-03T02:05:59;16.90;99.90
34574;DHT22;20809;49.594;8.734;2022-08-03T02:09:01;16.90;99.90
34574;DHT22;20809;49.594;8.734;2022-08-03T02:12:03;16.90;99.90
34574;DHT22;20809;49.594;8.734;2022-08-03T02:15:06;16.90;99.90
34574;DHT22;20809;49.594;8.734;2022-08-03T02:18:08;16.90;99.90
34574;DHT22;20809;49.594;8.734;2022-08-03T02:21:11;16.80;99.90
34574;DHT22;20809;49.594;8.734;2022-08-03T02:24:12;16.80;99.90
34574;DHT22;20809;49.594;8.734;2022-08-03T02:27:21;16.70;99.90
34574;DHT22;20809;49.594;8.734;2022-08-03T02:30:35;16.70;99.90
34574;DHT22;20809;49.594;8.734;2022-08-03T02:33:41;16.60;99.90
34574;DHT22;20809;49.594;8.734;2022-08-03T02:36:46;16.60;99.90
34574;DHT22;20809;49.594;8.734;2022-08-03T02:39:52;16.50;99.90
34574;DHT22;20809;49.594;8.734;2022-08-03T02:43:09;16.50;99.90
34574;DHT22;20809;49.594;8.734;2022-08-03T02:46:12;16.50;99.90
34574;DHT22;20809;49.594;8.734;2022-08-03T02:49:26;16.50;99.90
34574;DHT22;20809;49.594;8.734;2022-08-03T02:52:30;16.40;99.90
34574;DHT22;20809;49.594;8.734;2022-08-03T02:55:34;16.40;99.90
34574;DHT22;20809;49.594;8.734;2022-08-03T02:58:36;16.40;99.90
34574;DHT22;20809;49.594;8.734;2022-08-03T03:01:38;16.40;99.90
34574;DHT22;20809;49.594;8.734;2022-08-03T03:04:40;16.40;99.90
34574;DHT22;20809;49.594;8.734;2022-08-03T03:07:44;16.30;99.90
34574;DHT22;20809;49.594;8.734;2022-08-03T03:10:46;16.30;99.90
34574;DHT22;20809;49.594;8.734;2022-08-03T03:13:47;16.40;99.90
34574;DHT22;20809;49.594;8.734;2022-08-03T03:16:50;16.30;99.90
34574;DHT22;20809;49.594;8.734;2022-08-03T03:19:52;16.30;99.90
34574;DHT22;20809;49.594;8.734;2022-08-03T03:22:55;16.20;99.90
34574;DHT22;20809;49.594;8.734;2022-08-03T03:25:58;16.10;99.90
34574;DHT22;20809;49.594;8.734;2022-08-03T03:29:00;16.10;99.90
34574;DHT22;20809;49.594;8.734;2022-08-03T03:32:02;16.00;99.90
34574;DHT22;20809;49.594;8.734;2022-08-03T03:35:06;16.00;99.90
34574;DHT22;20809;49.594;8.734;2022-08-03T03:38:08;16.00;99.90
34574;DHT22;20809;49.594;8.734;2022-08-03T03:41:09;15.90;99.90
34574;DHT22;20809;49.594;8.734;2022-08-03T03:44:10;15.90;99.90
34574;DHT22;20809;49.594;8.734;2022-08-03T03:47:12;15.90;99.90
34574;DHT22;20809;49.594;8.734;2022-08-03T03:50:14;15.90;99.90
34574;DHT22;20809;49.594;8.734;2022-08-03T03:53:17;15.90;99.90
34574;DHT22;20809;49.594;8.734;2022-08-03T03:56:19;15.90;99.90
34574;DHT22;20809;49.594;8.734;2022-08-03T03:59:19;15.90;99.90
34574;DHT22;20809;49.594;8.734;2022-08-03T04:02:20;15.90;99.90
34574;DHT22;20809;49.594;8.734;2022-08-03T04:05:21;15.90;99.90
34574;DHT22;20809;49.594;8.734;2022-08-03T04:08:41;15.80;99.90
34574;DHT22;20809;49.594;8.734;2022-08-03T04:12:00;15.80;99.90
34574;DHT22;20809;49.594;8.734;2022-08-03T04:15:02;15.90;99.90
34574;DHT22;20809;49.594;8.734;2022-08-03T04:18:06;15.90;99.90
34574;DHT22;20809;49.594;8.734;2022-08-03T04:21:10;15.90;99.90
34574;DHT22;20809;49.594;8.734;2022-08-03T04:24:13;15.90;99.90
34574;DHT22;20809;49.594;8.734;2022-08-03T04:27:19;15.90;99.90
34574;DHT22;20809;49.594;8.734;2022-08-03T04:30:29;15.90;99.90
34574;DHT22;20809;49.594;8.734;2022-08-03T04:33:33;16.00;99.90
34574;DHT22;20809;49.594;8.734;2022-08-03T04:36:39;16.00;99.90
34574;DHT22;20809;49.594;8.734;2022-08-03T04:39:47;16.00;99.90
34574;DHT22;20809;49.594;8.734;2022-08-03T04:42:49;16.00;99.90
34574;DHT22;20809;49.594;8.734;2022-08-03T04:45:53;16.00;99.90
34574;DHT22;20809;49.594;8.734;2022-08-03T04:48:55;16.10;99.90
34574;DHT22;20809;49.594;8.734;2022-08-03T04:51:57;16.10;99.90
34574;DHT22;20809;49.594;8.734;2022-08-03T04:54:58;16.10;99.90
34574;DHT22;20809;49.594;8.734;2022-08-03T04:58:00;16.20;99.90
34574;DHT22;20809;49.594;8.734;2022-08-03T05:01:02;16.30;99.90
34574;DHT22;20809;49.594;8.734;2022-08-03T05:04:03;16.40;99.90
34574;DHT22;20809;49.594;8.734;2022-08-03T05:07:04;16.50;99.90
34574;DHT22;20809;49.594;8.734;2022-08-03T05:10:06;16.60;99.90
34574;DHT22;20809;49.594;8.734;2022-08-03T05:13:07;16.70;99.90
34574;DHT22;20809;49.594;8.734;2022-08-03T05:16:13;16.90;99.90
34574;DHT22;20809;49.594;8.734;2022-08-03T05:19:14;17.00;99.90
34574;DHT22;20809;49.594;8.734;2022-08-03T05:22:14;17.20;99.90
34574;DHT22;20809;49.594;8.734;2022-08-03T05:25:15;17.30;99.90
34574;DHT22;20809;49.594;8.734;2022-08-03T05:28:16;17.60;99.90
34574;DHT22;20809;49.594;8.734;2022-08-03T05:31:17;17.90;99.90
34574;DHT22;20809;49.594;8.734;2022-08-03T05:34:18;18.20;99.90
34574;DHT22;20809;49.594;8.734;2022-08-03T05:37:19;19.00;99.90
34574;DHT22;20809;49.594;8.734;2022-08-03T05:40:20;19.70;99.90
34574;DHT22;20809;49.594;8.734;2022-08-03T05:43:20;20.20;99.90
34574;DHT22;20809;49.594;8.734;2022-08-03T05:46:22;20.60;99.90
34574;DHT22;20809;49.594;8.734;2022-08-03T05:49:23;21.20;99.90
34574;DHT22;20809;49.594;8.734;2022-08-03T05:52:24;21.90;99.90
34574;DHT22;20809;49.594;8.734;2022-08-03T05:55:25;22.80;99.90
34574;DHT22;20809;49.594;8.734;2022-08-03T05:58:26;23.90;99.90
34574;DHT22;20809;49.594;8.734;2022-08-03T06:01:26;25.10;99.90
34574;DHT22;20809;49.594;8.734;2022-08-03T06:04:27;26.40;99.90
34574;DHT22;20809;49.594;8.734;2022-08-03T06:07:34;27.10;99.90
34574;DHT22;20809;49.594;8.734;2022-08-03T06:10:57;27.00;99.90
34574;DHT22;20809;49.594;8.734;2022-08-03T06:14:19;26.40;99.90
34574;DHT22;20809;49.594;8.734;2022-08-03T06:17:23;25.60;99.90
34574;DHT22;20809;49.594;8.734;2022-08-03T06:20:24;25.00;99.90
34574;DHT22;20809;49.594;8.734;2022-08-03T06:23:25;24.50;99.90
34574;DHT22;20809;49.594;8.734;2022-08-03T06:26:26;24.20;99.90
34574;DHT22;20809;49.594;8.734;2022-08-03T06:29:27;24.00;99.90
34574;DHT22;20809;49.594;8.734;2022-08-03T06:32:28;23.90;99.90
34574;DHT22;20809;49.594;8.734;2022-08-03T06:35:29;23.80;99.90
34574;DHT22;20809;49.594;8.734;2022-08-03T06:38:29;24.20;99.90
34574;DHT22;20809;49.594;8.734;2022-08-03T06:41:30;24.90;99.90
34574;DHT22;20809;49.594;8.734;2022-08-03T06:44:31;25.30;99.90
34574;DHT22;20809;49.594;8.734;2022-08-03T06:47:31;25.60;99.90
34574;DHT22;20809;49.594;8.734;2022-08-03T06:50:34;26.10;99.90
34574;DHT22;20809;49.594;8.734;2022-08-03T06:53:35;26.40;99.90
34574;DHT22;20809;49.594;8.734;2022-08-03T06:56:36;26.50;99.90
34574;DHT22;20809;49.594;8.734;2022-08-03T06:59:36;26.70;99.90
34574;DHT22;20809;49.594;8.734;2022-08-03T07:02:38;27.10;99.90
34574;DHT22;20809;49.594;8.734;2022-08-03T07:05:40;27.90;99.90
34574;DHT22;20809;49.594;8.734;2022-08-03T07:08:40;28.70;98.10
34574;DHT22;20809;49.594;8.734;2022-08-03T07:11:41;29.00;96.20
34574;DHT22;20809;49.594;8.734;2022-08-03T07:14:42;28.90;94.90
34574;DHT22;20809;49.594;8.734;2022-08-03T07:17:42;28.70;94.10
34574;DHT22;20809;49.594;8.734;2022-08-03T07:20:43;28.60;93.60
34574;DHT22;20809;49.594;8.734;2022-08-03T07:23:44;28.60;93.00
34574;DHT22;20809;49.594;8.734;2022-08-03T07:26:44;28.60;92.30
34574;DHT22;20809;49.594;8.734;2022-08-03T07:29:45;28.60;91.50
34574;DHT22;20809;49.594;8.734;2022-08-03T07:32:46;28.60;91.40
34574;DHT22;20809;49.594;8.734;2022-08-03T07:35:46;28.50;91.40
34574;DHT22;20809;49.594;8.734;2022-08-03T07:38:47;28.30;91.60
34574;DHT22;20809;49.594;8.734;2022-08-03T07:41:48;28.10;91.60
34574;DHT22;20809;49.594;8.734;2022-08-03T07:44:50;27.90;91.40
34574;DHT22;20809;49.594;8.734;2022-08-03T07:47:51;27.80;91.40
34574;DHT22;20809;49.594;8.734;2022-08-03T07:50:52;27.80;91.30
34574;DHT22;20809;49.594;8.734;2022-08-03T07:53:53;27.70;91.30
34574;DHT22;20809;49.594;8.734;2022-08-03T07:56:56;27.90;90.40
34574;DHT22;20809;49.594;8.734;2022-08-03T07:59:57;28.00;90.00
34574;DHT22;20809;49.594;8.734;2022-08-03T08:02:58;28.20;88.50
34574;DHT22;20809;49.594;8.734;2022-08-03T08:05:59;28.40;88.30
34574;DHT22;20809;49.594;8.734;2022-08-03T08:08:59;28.70;88.60
34574;DHT22;20809;49.594;8.734;2022-08-03T08:12:01;29.10;88.20
34574;DHT22;20809;49.594;8.734;2022-08-03T08:15:02;29.30;88.20
34574;DHT22;20809;49.594;8.734;2022-08-03T08:18:03;29.50;85.80
34574;DHT22;20809;49.594;8.734;2022-08-03T08:21:04;29.70;85.80
34574;DHT22;20809;49.594;8.734;2022-08-03T08:24:05;29.90;83.80
34574;DHT22;20809;49.594;8.734;2022-08-03T08:27:06;30.10;84.40
34574;DHT22;20809;49.594;8.734;2022-08-03T08:30:08;30.30;82.00
34574;DHT22;20809;49.594;8.734;2022-08-03T08:33:09;30.70;81.00
34574;DHT22;20809;49.594;8.734;2022-08-03T08:36:10;31.10;78.00
34574;DHT22;20809;49.594;8.734;2022-08-03T08:39:11;31.50;75.70
34574;DHT22;20809;49.594;8.734;2022-08-03T08:42:11;31.80;75.00
34574;DHT22;20809;49.594;8.734;2022-08-03T08:45:12;32.10;72.80
34574;DHT22;20809;49.594;8.734;2022-08-03T08:48:18;32.60;72.60
34574;DHT22;20809;49.594;8.734;2022-08-03T08:51:27;33.10;70.00
34574;DHT22;20809;49.594;8.734;2022-08-03T08:54:30;33.20;68.60
34574;DHT22;20809;49.594;8.734;2022-08-03T08:57:38;33.60;67.40
34574;DHT22;20809;49.594;8.734;2022-08-03T09:00:44;33.90;65.70
34574;DHT22;20809;49.594;8.734;2022-08-03T09:03:45;34.30;65.00
34574;DHT22;20809;49.594;8.734;2022-08-03T09:06:46;34.80;63.60
34574;DHT22;20809;49.594;8.734;2022-08-03T09:09:47;35.50;59.90
34574;DHT22;20809;49.594;8.734;2022-08-03T09:12:50;35.60;59.10
34574;DHT22;20809;49.594;8.734;2022-08-03T09:16:20;35.90;58.50
34574;DHT22;20809;49.594;8.734;2022-08-03T09:19:21;36.40;56.80
34574;DHT22;20809;49.594;8.734;2022-08-03T09:22:21;36.40;55.40
34574;DHT22;20809;49.594;8.734;2022-08-03T09:28:35;36.00;55.40
34574;DHT22;20809;49.594;8.734;2022-08-03T09:31:39;35.80;55.60
34574;DHT22;20809;49.594;8.734;2022-08-03T09:34:40;35.70;55.90
34574;DHT22;20809;49.594;8.734;2022-08-03T09:37:43;35.60;56.00
34574;DHT22;20809;49.594;8.734;2022-08-03T09:40:45;35.40;56.70
34574;DHT22;20809;49.594;8.734;2022-08-03T09:43:46;35.20;56.40
34574;DHT22;20809;49.594;8.734;2022-08-03T09:46:49;35.00;56.60
34574;DHT22;20809;49.594;8.734;2022-08-03T09:50:07;34.80;56.80
34574;DHT22;20809;49.594;8.734;2022-08-03T09:53:08;34.60;56.60
34574;DHT22;20809;49.594;8.734;2022-08-03T09:56:09;34.40;56.60
34574;DHT22;20809;49.594;8.734;2022-08-03T09:59:11;34.10;58.10
34574;DHT22;20809;49.594;8.734;2022-08-03T10:02:39;34.00;57.10
34574;DHT22;20809;49.594;8.734;2022-08-03T10:05:40;33.70;57.40
34574;DHT22;20809;49.594;8.734;2022-08-03T10:09:07;33.70;57.30
34574;DHT22;20809;49.594;8.734;2022-08-03T10:12:11;33.60;57.50
34574;DHT22;20809;49.594;8.734;2022-08-03T10:15:11;33.40;57.30
34574;DHT22;20809;49.594;8.734;2022-08-03T10:18:12;33.10;58.10
34574;DHT22;20809;49.594;8.734;2022-08-03T10:21:16;33.10;58.10
34574;DHT22;20809;49.594;8.734;2022-08-03T10:24:24;33.10;57.90
34574;DHT22;20809;49.594;8.734;2022-08-03T10:27:28;33.20;58.60
34574;DHT22;20809;49.594;8.734;2022-08-03T10:30:35;33.00;59.00
34574;DHT22;20809;49.594;8.734;2022-08-03T10:33:42;32.90;57.80
34574;DHT22;20809;49.594;8.734;2022-08-03T10:36:44;33.00;58.90
34574;DHT22;20809;49.594;8.734;2022-08-03T10:39:48;33.20;59.00
34574;DHT22;20809;49.594;8.734;2022-08-03T10:42:55;33.40;58.10
34574;DHT22;20809;49.594;8.734;2022-08-03T10:45:58;33.60;57.50
34574;DHT22;20809;49.594;8.734;2022-08-03T10:49:00;33.60;56.90
34574;DHT22;20809;49.594;8.734;2022-08-03T10:52:03;33.30;56.40
34574;DHT22;20809;49.594;8.734;2022-08-03T10:55:40;33.30;57.00
34574;DHT22;20809;49.594;8.734;2022-08-03T10:58:59;33.40;58.30
34574;DHT22;20809;49.594;8.734;2022-08-03T11:02:00;33.70;57.20
34574;DHT22;20809;49.594;8.734;2022-08-03T11:05:25;33.90;57.40
34574;DHT22;20809;49.594;8.734;2022-08-03T11:08:29;34.10;56.90
34574;DHT22;20809;49.594;8.734;2022-08-03T11:11:30;34.30;56.70
34574;DHT22;20809;49.594;8.734;2022-08-03T11:14:45;34.40;56.40
34574;DHT22;20809;49.594;8.734;2022-08-03T11:18:08;34.40;56.00
34574;DHT22;20809;49.594;8.734;2022-08-03T11:21:09;34.40;57.60
34574;DHT22;20809;49.594;8.734;2022-08-03T11:24:10;34.40;57.40
34574;DHT22;20809;49.594;8.734;2022-08-03T11:27:34;34.70;57.40
34574;DHT22;20809;49.594;8.734;2022-08-03T11:30:35;34.80;56.80
34574;DHT22;20809;49.594;8.734;2022-08-03T11:33:36;34.80;57.10
34574;DHT22;20809;49.594;8.734;2022-08-03T11:40:42;35.10;56.70
34574;DHT22;20809;49.594;8.734;2022-08-03T11:43:44;35.10;55.50
34574;DHT22;20809;49.594;8.734;2022-08-03T11:46:45;34.90;55.80
34574;DHT22;20809;49.594;8.734;2022-08-03T11:49:47;34.40;56.60
34574;DHT22;20809;49.594;8.734;2022-08-03T11:52:49;34.40;56.50
34574;DHT22;20809;49.594;8.734;2022-08-03T11:55:50;34.70;56.70
34574;DHT22;20809;49.594;8.734;2022-08-03T11:58:56;35.00;56.00
34574;DHT22;20809;49.594;8.734;2022-08-03T12:02:11;35.20;56.10
34574;DHT22;20809;49.594;8.734;2022-08-03T12:05:11;35.30;57.20
34574;DHT22;20809;49.594;8.734;2022-08-03T12:08:14;35.40;56.90
34574;DHT22;20809;49.594;8.734;2022-08-03T12:11:16;35.40;56.80
34574;DHT22;20809;49.594;8.734;2022-08-03T12:14:18;35.40;57.40
34574;DHT22;20809;49.594;8.734;2022-08-03T12:17:19;35.50;56.50
34574;DHT22;20809;49.594;8.734;2022-08-03T12:20:25;35.70;55.70
34574;DHT22;20809;49.594;8.734;2022-08-03T12:23:26;35.50;55.50
34574;DHT22;20809;49.594;8.734;2022-08-03T12:26:28;35.40;56.20
34574;DHT22;20809;49.594;8.734;2022-08-03T12:29:29;35.60;56.00
34574;DHT22;20809;49.594;8.734;2022-08-03T12:32:30;35.80;54.90
34574;DHT22;20809;49.594;8.734;2022-08-03T12:35:31;35.60;55.50
34574;DHT22;20809;49.594;8.734;2022-08-03T12:38:35;35.50;55.60
34574;DHT22;20809;49.594;8.734;2022-08-03T12:41:38;35.60;56.10
34574;DHT22;20809;49.594;8.734;2022-08-03T12:44:44;35.80;56.10
34574;DHT22;20809;49.594;8.734;2022-08-03T12:47:54;36.10;54.50
34574;DHT22;20809;49.594;8.734;2022-08-03T12:51:07;36.20;55.30
34574;DHT22;20809;49.594;8.734;2022-08-03T12:54:25;36.00;54.40
34574;DHT22;20809;49.594;8.734;2022-08-03T12:57:42;35.50;54.60
34574;DHT22;20809;49.594;8.734;2022-08-03T13:00:54;35.30;55.00
34574;DHT22;20809;49.594;8.734;2022-08-03T13:03:55;35.50;55.40
34574;DHT22;20809;49.594;8.734;2022-08-03T13:07:04;35.70;54.40
34574;DHT22;20809;49.594;8.734;2022-08-03T13:10:06;36.00;54.20
34574;DHT22;20809;49.594;8.734;2022-08-03T13:13:06;36.30;54.00
34574;DHT22;20809;49.594;8.734;2022-08-03T13:16:08;36.60;53.60
34574;DHT22;20809;49.594;8.734;2022-08-03T13:19:08;36.90;52.50
34574;DHT22;20809;49.594;8.734;2022-08-03T13:22:15;36.80;52.20
34574;DHT22;20809;49.594;8.734;2022-08-03T13:25:16;36.90;51.90
34574;DHT22;20809;49.594;8.734;2022-08-03T13:28:17;36.70;52.00
34574;DHT22;20809;49.594;8.734;2022-08-03T13:31:18;36.80;51.30
34574;DHT22;20809;49.594;8.734;2022-08-03T13:34:24;36.80;50.90
34574;DHT22;20809;49.594;8.734;2022-08-03T13:37:25;36.40;51.90
34574;DHT22;20809;49.594;8.734;2022-08-03T13:40:26;36.60;50.20
34574;DHT22;20809;49.594;8.734;2022-08-03T13:43:29;36.60;50.20
34574;DHT22;20809;49.594;8.734;2022-08-03T13:46:30;36.30;51.10
34574;DHT22;20809;49.594;8.734;2022-08-03T13:49:31;36.10;51.20
34574;DHT22;20809;49.594;8.734;2022-08-03T13:52:38;35.80;51.60
34574;DHT22;20809;49.594;8.734;2022-08-03T13:55:41;36.00;51.30
34574;DHT22;20809;49.594;8.734;2022-08-03T13:58:41;36.00;51.20
34574;DHT22;20809;49.594;8.734;2022-08-03T14:01:42;35.90;51.60
34574;DHT22;20809;49.594;8.734;2022-08-03T14:04:43;35.90;51.20
34574;DHT22;20809;49.594;8.734;2022-08-03T14:07:43;35.90;51.50
34574;DHT22;20809;49.594;8.734;2022-08-03T14:10:44;36.10;51.40
34574;DHT22;20809;49.594;8.734;2022-08-03T14:13:45;36.40;51.00
34574;DHT22;20809;49.594;8.734;2022-08-03T14:16:46;36.70;50.40
34574;DHT22;20809;49.594;8.734;2022-08-03T14:19:46;37.00;51.10
34574;DHT22;20809;49.594;8.734;2022-08-03T14:22:47;37.20;51.10
34574;DHT22;20809;49.594;8.734;2022-08-03T14:25:48;37.50;50.50
34574;DHT22;20809;49.594;8.734;2022-08-03T14:28:49;37.40;49.60
34574;DHT22;20809;49.594;8.734;2022-08-03T14:31:49;37.20;49.60
34574;DHT22;20809;49.594;8.734;2022-08-03T14:34:50;36.90;50.40
34574;DHT22;20809;49.594;8.734;2022-08-03T14:37:51;36.60;50.40
34574;DHT22;20809;49.594;8.734;2022-08-03T14:40:52;36.50;51.00
34574;DHT22;20809;49.594;8.734;2022-08-03T14:43:52;36.50;51.00
34574;DHT22;20809;49.594;8.734;2022-08-03T14:46:55;36.70;50.50
34574;DHT22;20809;49.594;8.734;2022-08-03T14:49:56;36.80;51.20
34574;DHT22;20809;49.594;8.734;2022-08-03T14:52:57;37.10;51.20
34574;DHT22;20809;49.594;8.734;2022-08-03T14:55:57;37.30;50.50
34574;DHT22;20809;49.594;8.734;2022-08-03T14:58:58;37.50;50.00
34574;DHT22;20809;49.594;8.734;2022-08-03T15:01:59;37.60;49.70
34574;DHT22;20809;49.594;8.734;2022-08-03T15:05:00;37.60;49.10
34574;DHT22;20809;49.594;8.734;2022-08-03T15:08:00;37.50;48.80
34574;DHT22;20809;49.594;8.734;2022-08-03T15:11:01;37.40;48.60
34574;DHT22;20809;49.594;8.734;2022-08-03T15:14:04;37.20;49.10
34574;DHT22;20809;49.594;8.734;2022-08-03T15:17:05;37.20;49.10
34574;DHT22;20809;49.594;8.734;2022-08-03T15:20:06;37.10;49.40
34574;DHT22;20809;49.594;8.734;2022-08-03T15:23:08;37.20;50.00
34574;DHT22;20809;49.594;8.734;2022-08-03T15:26:09;37.20;49.60
34574;DHT22;20809;49.594;8.734;2022-08-03T15:29:09;36.90;49.80
34574;DHT22;20809;49.594;8.734;2022-08-03T15:32:16;36.70;49.30
34574;DHT22;20809;49.594;8.734;2022-08-03T15:35:17;36.50;49.10
34574;DHT22;20809;49.594;8.734;2022-08-03T15:38:20;36.40;49.20
34574;DHT22;20809;49.594;8.734;2022-08-03T15:41:24;36.60;49.00
34574;DHT22;20809;49.594;8.734;2022-08-03T15:44:25;36.60;50.00
34574;DHT22;20809;49.594;8.734;2022-08-03T15:47:26;36.80;50.20
34574;DHT22;20809;49.594;8.734;2022-08-03T15:50:26;37.00;49.80
34574;DHT22;20809;49.594;8.734;2022-08-03T15:53:27;37.20;49.40
34574;DHT22;20809;49.594;8.734;2022-08-03T15:56:28;37.40;49.40
34574;DHT22;20809;49.594;8.734;2022-08-03T15:59:29;37.50;48.30
34574;DHT22;20809;49.594;8.734;2022-08-03T16:02:29;37.50;47.90
34574;DHT22;20809;49.594;8.734;2022-08-03T16:05:31;37.30;48.60
34574;DHT22;20809;49.594;8.734;2022-08-03T16:08:32;37.10;48.70
34574;DHT22;20809;49.594;8.734;2022-08-03T16:11:33;36.80;48.60
34574;DHT22;20809;49.594;8.734;2022-08-03T16:14:34;36.50;49.10
34574;DHT22;20809;49.594;8.734;2022-08-03T16:17:35;36.10;49.20
34574;DHT22;20809;49.594;8.734;2022-08-03T16:20:36;35.90;49.70
34574;DHT22;20809;49.594;8.734;2022-08-03T16:23:36;35.90;50.10
34574;DHT22;20809;49.594;8.734;2022-08-03T16:26:39;35.80;51.00
34574;DHT22;20809;49.594;8.734;2022-08-03T16:29:39;35.90;50.70
34574;DHT22;20809;49.594;8.734;2022-08-03T16:32:40;36.20;49.40
34574;DHT22;20809;49.594;8.734;2022-08-03T16:35:41;36.30;49.30
34574;DHT22;20809;49.594;8.734;2022-08-03T16:38:42;36.40;49.20
34574;DHT22;20809;49.594;8.734;2022-08-03T16:41:43;36.30;49.10
34574;DHT22;20809;49.594;8.734;2022-08-03T16:44:44;36.20;50.00
34574;DHT22;20809;49.594;8.734;2022-08-03T16:47:44;36.40;49.60
34574;DHT22;20809;49.594;8.734;2022-08-03T16:50:46;36.80;49.40
34574;DHT22;20809;49.594;8.734;2022-08-03T16:53:47;37.20;49.10
34574;DHT22;20809;49.594;8.734;2022-08-03T16:56:47;37.40;48.30
34574;DHT22;20809;49.594;8.734;2022-08-03T16:59:48;37.60;48.10
34574;DHT22;20809;49.594;8.734;2022-08-03T17:02:50;38.00;47.90
34574;DHT22;20809;49.594;8.734;2022-08-03T17:05:52;38.30;47.40
34574;DHT22;20809;49.594;8.734;2022-08-03T17:08:53;38.60;47.00
34574;DHT22;20809;49.594;8.734;2022-08-03T17:11:53;38.90;45.90
34574;DHT22;20809;49.594;8.734;2022-08-03T17:14:54;38.90;45.90
34574;DHT22;20809;49.594;8.734;2022-08-03T17:18:04;39.10;46.30
34574;DHT22;20809;49.594;8.734;2022-08-03T17:21:07;39.50;46.30
34574;DHT22;20809;49.594;8.734;2022-08-03T17:24:13;40.00;45.40
34574;DHT22;20809;49.594;8.734;2022-08-03T17:27:20;40.40;45.20
34574;DHT22;20809;49.594;8.734;2022-08-03T17:30:24;40.70;44.50
34574;DHT22;20809;49.594;8.734;2022-08-03T17:33:46;41.10;44.40
34574;DHT22;20809;49.594;8.734;2022-08-03T17:36:48;41.40;43.80
34574;DHT22;20809;49.594;8.734;2022-08-03T17:39:50;41.10;43.50
34574;DHT22;20809;49.594;8.734;2022-08-03T17:42:52;39.80;44.20
34574;DHT22;20809;49.594;8.734;2022-08-03T17:45:53;38.30;46.00
34574;DHT22;20809;49.594;8.734;2022-08-03T17:48:54;37.10;46.80
34574;DHT22;20809;49.594;8.734;2022-08-03T17:52:00;36.20;47.40
34574;DHT22;20809;49.594;8.734;2022-08-03T17:55:15;35.40;48.60
34574;DHT22;20809;49.594;8.734;2022-08-03T17:58:30;34.90;50.30
34574;DHT22;20809;49.594;8.734;2022-08-03T18:01:42;34.50;51.50
34574;DHT22;20809;49.594;8.734;2022-08-03T18:05:12;34.20;51.20
34574;DHT22;20809;49.594;8.734;2022-08-03T18:08:28;33.90;51.10
34574;DHT22;20809;49.594;8.734;2022-08-03T18:11:32;33.70;52.20
34574;DHT22;20809;49.594;8.734;2022-08-03T18:14:43;33.60;52.90
34574;DHT22;20809;49.594;8.734;2022-08-03T18:17:52;33.40;53.90
34574;DHT22;20809;49.594;8.734;2022-08-03T18:21:03;33.10;55.40
34574;DHT22;20809;49.594;8.734;2022-08-03T18:24:04;32.90;56.10
34574;DHT22;20809;49.594;8.734;2022-08-03T18:27:07;32.70;57.00
34574;DHT22;20809;49.594;8.734;2022-08-03T18:30:17;32.50;57.50
34574;DHT22;20809;49.594;8.734;2022-08-03T18:33:20;32.20;57.50
34574;DHT22;20809;49.594;8.734;2022-08-03T18:36:23;32.00;58.50
34574;DHT22;20809;49.594;8.734;2022-08-03T18:39:25;31.70;59.20
34574;DHT22;20809;49.594;8.734;2022-08-03T18:42:26;31.60;59.00
34574;DHT22;20809;49.594;8.734;2022-08-03T18:45:29;31.40;59.00
34574;DHT22;20809;49.594;8.734;2022-08-03T18:48:52;31.10;59.60
34574;DHT22;20809;49.594;8.734;2022-08-03T18:52:23;30.80;60.30
34574;DHT22;20809;49.594;8.734;2022-08-03T18:55:29;30.40;61.80
34574;DHT22;20809;49.594;8.734;2022-08-03T19:01:52;29.90;64.60
34574;DHT22;20809;49.594;8.734;2022-08-03T19:04:57;29.60;66.20
34574;DHT22;20809;49.594;8.734;2022-08-03T19:08:13;29.30;66.70
34574;DHT22;20809;49.594;8.734;2022-08-03T19:11:39;29.10;67.10
34574;DHT22;20809;49.594;8.734;2022-08-03T19:14:43;29.00;67.90
34574;DHT22;20809;49.594;8.734;2022-08-03T19:17:51;28.90;68.50
34574;DHT22;20809;49.594;8.734;2022-08-03T19:20:52;28.70;69.90
34574;DHT22;20809;49.594;8.734;2022-08-03T19:23:54;28.60;70.60
34574;DHT22;20809;49.594;8.734;2022-08-03T19:26:55;28.40;71.40
34574;DHT22;20809;49.594;8.734;2022-08-03T19:29:58;28.20;72.10
34574;DHT22;20809;49.594;8.734;2022-08-03T19:32:59;28.00;72.30
34574;DHT22;20809;49.594;8.734;2022-08-03T19:36:01;27.80;72.60
34574;DHT22;20809;49.594;8.734;2022-08-03T19:39:02;27.60;73.10
34574;DHT22;20809;49.594;8.734;2022-08-03T19:42:06;27.40;73.60
34574;DHT22;20809;49.594;8.734;2022-08-03T19:45:10;27.30;74.30
34574;DHT22;20809;49.594;8.734;2022-08-03T19:48:13;27.30;74.80
34574;DHT22;20809;49.594;8.734;2022-08-03T19:51:18;27.20;75.90
34574;DHT22;20809;49.594;8.734;2022-08-03T19:54:21;27.00;75.80
34574;DHT22;20809;49.594;8.734;2022-08-03T19:57:23;26.90;76.40
34574;DHT22;20809;49.594;8.734;2022-08-03T20:00:27;26.80;76.40
34574;DHT22;20809;49.594;8.734;2022-08-03T20:03:29;26.70;76.70